Time;durP1;ratioP1;P1;durP2;ratioP2;P2;SDS_P1;SDS_P2;PMS_P1;PMS_P2;Temp;Humidity;BMP_temperature;BMP_pressure;BME280_temperature;BME280_humidity;BME280_pressure;Samples;Min_cycle;Max_cycle;Signal;HPM_P1;HPM_P2
2023/06/09 00:02:20;;;;;;;10.52;9.82;;;;;;;;;;5067209;28;20432;-66
2023/06/09 00:04:48;;;;;;;11.02;10.15;;;;;;;;;;5061131;28;20431;-66
2023/06/09 00:07:16;;;;;;;10.95;10.15;;;;;;;;;;5068157;28;20431;-66
2023/06/09 00:09:43;;;;;;;10.80;10.00;;;;;;;;;;5067157;28;20449;-65
2023/06/09 00:12:12;;;;;;;10.55;9.75;;;;;;;;;;5068757;28;20459;-65
2023/06/09 00:14:41;;;;;;;10.63;9.82;;;;;;;;;;5065403;28;20462;-65
2023/06/09 00:17:08;;;;;;;10.40;9.60;;;;;;;;;;5063751;28;20457;-66
2023/06/09 00:19:36;;;;;;;10.13;9.43;;;;;;;;;;5065675;28;20481;-65
2023/06/09 00:22:03;;;;;;;9.80;9.20;;;;;;;;;;5055504;28;20733;-65
2023/06/09 00:24:30;;;;;;;11.00;10.20;;;;;;;;;;5064798;28;20432;-65
2023/06/09 00:26:57;;;;;;;10.18;9.48;;;;;;;;;;5066197;28;20452;-66
2023/06/09 00:29:24;;;;;;;11.40;10.40;;;;;;;;;;5067491;28;20447;-65
2023/06/09 00:31:53;;;;;;;11.17;10.37;;;;;;;;;;5063694;28;20556;-65
2023/06/09 00:34:20;;;;;;;9.52;8.93;;;;;;;;;;5061094;28;20423;-65
2023/06/09 00:36:47;;;;;;;10.40;9.70;;;;;;;;;;5066106;28;20439;-65
2023/06/09 00:39:14;;;;;;;10.93;10.13;;;;;;;;;;5066432;28;20428;-65
2023/06/09 00:41:41;;;;;;;11.20;10.45;;;;;;;;;;5067800;28;20435;-65
2023/06/09 00:44:09;;;;;;;11.52;10.73;;;;;;;;;;5065994;28;20503;-65
2023/06/09 00:46:36;;;;;;;11.30;10.50;;;;;;;;;;5066460;28;20431;-66
2023/06/09 00:49:04;;;;;;;10.80;10.10;;;;;;;;;;5066273;28;20427;-66
2023/06/09 00:51:33;;;;;;;12.02;11.13;;;;;;;;;;5067039;28;20944;-66
2023/06/09 00:54:01;;;;;;;11.15;10.25;;;;;;;;;;5066083;28;20436;-65
2023/06/09 00:56:29;;;;;;;10.48;9.77;;;;;;;;;;5066719;28;20435;-66
2023/06/09 00:58:56;;;;;;;10.15;9.35;;;;;;;;;;5067843;28;20423;-66
2023/06/09 01:01:23;;;;;;;10.90;10.00;;;;;;;;;;5065286;28;20431;-66
2023/06/09 01:03:50;;;;;;;10.73;9.93;;;;;;;;;;5066176;28;20913;-66
2023/06/09 01:06:26;;;;;;;10.90;10.10;;;;;;;;;;5065129;28;20430;-66
2023/06/09 01:08:55;;;;;;;11.07;10.27;;;;;;;;;;5063382;28;20427;-66
2023/06/09 01:11:25;;;;;;;10.90;10.10;;;;;;;;;;5068305;28;20514;-66
2023/06/09 01:13:57;;;;;;;11.43;10.63;;;;;;;;;;5067544;28;20546;-65
2023/06/09 01:16:25;;;;;;;11.68;10.80;;;;;;;;;;5067788;28;20436;-66
2023/06/09 01:18:53;;;;;;;13.10;12.02;;;;;;;;;;5071445;28;20427;-66
2023/06/09 01:21:35;;;;;;;11.70;10.85;;;;;;;;;;5066996;28;20442;-66
2023/06/09 01:24:04;;;;;;;12.77;11.88;;;;;;;;;;5064656;28;20499;-66
2023/06/09 01:26:34;;;;;;;13.60;12.60;;;;;;;;;;5067446;28;20455;-65
2023/06/09 01:29:03;;;;;;;14.05;12.88;;;;;;;;;;5071006;28;20427;-64
2023/06/09 01:31:30;;;;;;;13.90;12.80;;;;;;;;;;5070388;28;20431;-66
2023/06/09 01:33:58;;;;;;;14.23;13.03;;;;;;;;;;5069803;28;20431;-66
2023/06/09 01:36:25;;;;;;;14.07;12.88;;;;;;;;;;5068443;28;20808;-66
2023/06/09 01:38:52;;;;;;;13.70;12.50;;;;;;;;;;5068790;28;20455;-66
2023/06/09 01:41:19;;;;;;;13.48;12.38;;;;;;;;;;5066873;28;20439;-66
2023/06/09 01:43:47;;;;;;;13.50;12.50;;;;;;;;;;5066129;28;20439;-66
2023/06/09 01:46:14;;;;;;;12.90;11.90;;;;;;;;;;5068561;28;20434;-66
2023/06/09 01:48:48;;;;;;;13.15;12.15;;;;;;;;;;5067135;28;20813;-64
2023/06/09 01:51:17;;;;;;;13.10;12.20;;;;;;;;;;5070577;28;20434;-66
2023/06/09 01:53:48;;;;;;;13.47;12.57;;;;;;;;;;5032143;28;20957;-64
2023/06/09 01:56:17;;;;;;;13.00;12.00;;;;;;;;;;5030954;28;20452;-63
2023/06/09 01:58:45;;;;;;;13.40;12.30;;;;;;;;;;5028499;28;20438;-64
2023/06/09 02:01:15;;;;;;;12.68;11.77;;;;;;;;;;5033939;28;20439;-65
2023/06/09 02:03:43;;;;;;;11.98;11.13;;;;;;;;;;5029342;28;20485;-71
2023/06/09 02:06:12;;;;;;;13.07;12.07;;;;;;;;;;5027937;28;20433;-72
2023/06/09 02:08:39;;;;;;;12.30;11.43;;;;;;;;;;5029868;28;20434;-71
2023/06/09 02:11:06;;;;;;;13.32;12.32;;;;;;;;;;5020900;28;20431;-70
2023/06/09 02:13:33;;;;;;;13.85;12.70;;;;;;;;;;5020423;28;20834;-71
2023/06/09 02:16:00;;;;;;;12.90;12.00;;;;;;;;;;5022439;28;20435;-68
2023/06/09 02:18:32;;;;;;;12.35;11.45;;;;;;;;;;5025178;28;20439;-71
2023/06/09 02:20:59;;;;;;;12.50;11.60;;;;;;;;;;5022406;28;20438;-69
2023/06/09 02:23:26;;;;;;;13.13;12.02;;;;;;;;;;5023744;28;20432;-71
2023/06/09 02:25:53;;;;;;;13.20;12.30;;;;;;;;;;5025592;28;20567;-70
2023/06/09 02:28:20;;;;;;;12.45;11.65;;;;;;;;;;5022167;28;20435;-71
2023/06/09 02:30:47;;;;;;;13.02;12.02;;;;;;;;;;5021912;28;20798;-71
2023/06/09 02:33:15;;;;;;;13.43;12.50;;;;;;;;;;5028756;28;20437;-70
2023/06/09 02:35:43;;;;;;;12.53;11.63;;;;;;;;;;5025083;28;20431;-70
2023/06/09 02:38:11;;;;;;;12.52;11.52;;;;;;;;;;5023011;28;20494;-70
2023/06/09 02:40:38;;;;;;;12.67;11.77;;;;;;;;;;5025772;28;20501;-68
2023/06/09 02:43:05;;;;;;;12.60;11.60;;;;;;;;;;5037001;28;20905;-68
2023/06/09 02:45:32;;;;;;;12.80;11.90;;;;;;;;;;5046374;28;20948;-69
2023/06/09 02:47:59;;;;;;;13.18;12.18;;;;;;;;;;5029774;28;20435;-70
2023/06/09 02:50:27;;;;;;;13.00;12.00;;;;;;;;;;5027072;28;20431;-70
2023/06/09 02:52:55;;;;;;;13.40;12.40;;;;;;;;;;5033994;28;20509;-68
2023/06/09 02:55:22;;;;;;;13.02;12.02;;;;;;;;;;5050213;28;20433;-73
2023/06/09 02:57:49;;;;;;;13.25;12.25;;;;;;;;;;5027626;28;20443;-69
2023/06/09 03:00:17;;;;;;;12.83;11.93;;;;;;;;;;5037254;28;20424;-69
2023/06/09 03:02:45;;;;;;;13.55;12.55;;;;;;;;;;5028179;28;20439;-70
2023/06/09 03:05:12;;;;;;;14.00;12.80;;;;;;;;;;5029556;28;20419;-71
2023/06/09 03:07:40;;;;;;;12.83;11.93;;;;;;;;;;5026438;28;20885;-69
2023/06/09 03:10:08;;;;;;;13.70;12.70;;;;;;;;;;5026097;28;20828;-68
2023/06/09 03:12:35;;;;;;;13.40;12.40;;;;;;;;;;5026397;28;20435;-68
2023/06/09 03:15:03;;;;;;;13.07;12.07;;;;;;;;;;5029531;28;20430;-69
2023/06/09 03:17:30;;;;;;;13.00;12.10;;;;;;;;;;5027764;28;20575;-70
2023/06/09 03:19:57;;;;;;;12.80;11.88;;;;;;;;;;5027975;28;20441;-69
2023/06/09 03:22:27;;;;;;;13.10;12.02;;;;;;;;;;5027607;28;20439;-71
2023/06/09 03:24:54;;;;;;;13.00;12.00;;;;;;;;;;5026758;28;20448;-69
2023/06/09 03:27:23;;;;;;;12.60;11.70;;;;;;;;;;5025025;28;20436;-66
2023/06/09 03:29:50;;;;;;;12.50;11.57;;;;;;;;;;5025164;28;20521;-71
2023/06/09 03:32:17;;;;;;;13.10;12.20;;;;;;;;;;5027832;28;20428;-69
2023/06/09 03:34:44;;;;;;;13.27;12.27;;;;;;;;;;5028234;28;22060;-70
2023/06/09 03:37:14;;;;;;;13.35;12.35;;;;;;;;;;5028641;28;20416;-68
2023/06/09 03:39:41;;;;;;;13.97;12.77;;;;;;;;;;5029189;28;20679;-72
2023/06/09 03:42:08;;;;;;;13.73;12.82;;;;;;;;;;5025707;28;20431;-69
2023/06/09 03:44:37;;;;;;;13.70;12.70;;;;;;;;;;5026430;28;20809;-68
2023/06/09 03:47:04;;;;;;;13.38;12.38;;;;;;;;;;5026976;28;20554;-70
2023/06/09 03:49:31;;;;;;;13.63;12.67;;;;;;;;;;5026074;28;20458;-71
2023/06/09 03:51:58;;;;;;;13.90;12.90;;;;;;;;;;5025679;28;20427;-70
2023/06/09 03:54:26;;;;;;;14.32;13.32;;;;;;;;;;5023493;28;21112;-69
2023/06/09 03:56:53;;;;;;;13.95;12.95;;;;;;;;;;5031782;28;20486;-68
2023/06/09 03:59:20;;;;;;;13.95;12.95;;;;;;;;;;5024392;28;20462;-70
2023/06/09 04:01:49;;;;;;;13.98;12.98;;;;;;;;;;5024837;28;20435;-68
2023/06/09 04:04:16;;;;;;;14.70;13.60;;;;;;;;;;5025998;28;20865;-69
2023/06/09 04:06:45;;;;;;;14.25;13.15;;;;;;;;;;5031688;28;20431;-69
2023/06/09 04:09:12;;;;;;;13.55;12.55;;;;;;;;;;5026036;28;20435;-68
2023/06/09 04:11:39;;;;;;;13.18;12.18;;;;;;;;;;5024136;28;20437;-68
2023/06/09 04:14:06;;;;;;;13.25;12.25;;;;;;;;;;5030214;28;20454;-67
2023/06/09 04:16:34;;;;;;;13.70;12.70;;;;;;;;;;5024743;28;20465;-70
2023/06/09 04:19:02;;;;;;;13.68;12.77;;;;;;;;;;5026102;28;20435;-70
2023/06/09 04:21:29;;;;;;;13.60;12.50;;;;;;;;;;5027833;28;20759;-70
2023/06/09 04:23:56;;;;;;;14.02;13.02;;;;;;;;;;5026494;28;20435;-68
2023/06/09 04:26:23;;;;;;;12.75;11.85;;;;;;;;;;5025618;28;20438;-69
2023/06/09 04:28:54;;;;;;;12.10;11.20;;;;;;;;;;5025321;28;20431;-67
2023/06/09 04:31:23;;;;;;;12.35;11.40;;;;;;;;;;5057985;28;20447;-69
2023/06/09 04:33:51;;;;;;;12.18;11.27;;;;;;;;;;5053197;28;20516;-69
2023/06/09 04:36:20;;;;;;;11.68;10.77;;;;;;;;;;5083296;22;20470;-73
2023/06/09 04:38:48;;;;;;;11.40;10.60;;;;;;;;;;5053308;28;21703;-73
2023/06/09 04:41:17;;;;;;;10.87;10.13;;;;;;;;;;5056190;28;20526;-73
2023/06/09 04:43:44;;;;;;;11.68;10.80;;;;;;;;;;5061512;28;20429;-72
2023/06/09 04:46:12;;;;;;;11.85;10.95;;;;;;;;;;5079679;28;20431;-72
2023/06/09 04:48:41;;;;;;;12.23;11.43;;;;;;;;;;5053362;28;20933;-75
2023/06/09 04:51:10;;;;;;;11.70;10.80;;;;;;;;;;5060581;28;20993;-74
2023/06/09 04:53:39;;;;;;;11.40;10.60;;;;;;;;;;5065190;28;20423;-75
2023/06/09 04:56:08;;;;;;;11.13;10.30;;;;;;;;;;5068663;28;20431;-73
2023/06/09 04:58:35;;;;;;;11.60;10.80;;;;;;;;;;5066399;28;20518;-65
2023/06/09 05:01:03;;;;;;;11.40;10.60;;;;;;;;;;5057279;28;20429;-64
2023/06/09 05:03:30;;;;;;;11.35;10.50;;;;;;;;;;5065598;28;20515;-63
2023/06/09 05:05:57;;;;;;;12.48;11.40;;;;;;;;;;5064160;28;20439;-64
2023/06/09 05:08:24;;;;;;;12.20;11.30;;;;;;;;;;5065327;28;20427;-64
2023/06/09 05:10:53;;;;;;;12.40;11.60;;;;;;;;;;5061609;28;20442;-64
2023/06/09 05:13:20;;;;;;;11.82;11.00;;;;;;;;;;5064016;28;20539;-62
2023/06/09 05:15:48;;;;;;;12.02;11.23;;;;;;;;;;5060455;28;20460;-64
2023/06/09 05:18:17;;;;;;;12.00;11.18;;;;;;;;;;5059907;28;20459;-65
2023/06/09 05:20:44;;;;;;;11.43;10.63;;;;;;;;;;5060760;28;20514;-64
2023/06/09 05:23:12;;;;;;;11.18;10.27;;;;;;;;;;5061837;28;20427;-64
2023/06/09 05:25:39;;;;;;;12.20;11.20;;;;;;;;;;5063280;28;20430;-65
2023/06/09 05:28:07;;;;;;;11.00;10.20;;;;;;;;;;5064066;28;20438;-68
2023/06/09 05:30:34;;;;;;;10.48;9.50;;;;;;;;;;5066032;28;20520;-71
2023/06/09 05:33:01;;;;;;;9.82;9.13;;;;;;;;;;5067464;28;20782;-70
2023/06/09 05:35:28;;;;;;;10.18;9.38;;;;;;;;;;5061596;28;20524;-65
2023/06/09 05:37:56;;;;;;;9.85;9.10;;;;;;;;;;5068501;28;20442;-67
2023/06/09 05:40:23;;;;;;;9.80;9.00;;;;;;;;;;5070251;28;20430;-68
2023/06/09 05:42:50;;;;;;;8.88;8.27;;;;;;;;;;5071349;28;20435;-67
2023/06/09 05:45:19;;;;;;;9.63;8.90;;;;;;;;;;5062921;28;20429;-66
2023/06/09 05:47:46;;;;;;;8.98;8.38;;;;;;;;;;5070556;28;20417;-66
2023/06/09 05:50:13;;;;;;;9.90;9.00;;;;;;;;;;5063079;28;20439;-67
2023/06/09 05:52:40;;;;;;;9.10;8.50;;;;;;;;;;5067732;28;20852;-66
2023/06/09 05:55:07;;;;;;;9.20;8.50;;;;;;;;;;5067907;28;20427;-68
2023/06/09 05:57:36;;;;;;;9.70;9.00;;;;;;;;;;5061892;28;20431;-66
2023/06/09 06:00:07;;;;;;;9.90;9.20;;;;;;;;;;5065222;28;20470;-66
2023/06/09 06:02:38;;;;;;;10.50;9.70;;;;;;;;;;5065437;28;20802;-67
2023/06/09 06:05:05;;;;;;;10.43;9.73;;;;;;;;;;5063640;28;20428;-66
2023/06/09 06:07:32;;;;;;;9.45;8.75;;;;;;;;;;5062494;28;20435;-67
2023/06/09 06:09:59;;;;;;;9.73;9.02;;;;;;;;;;5061968;28;20447;-66
2023/06/09 06:12:26;;;;;;;8.95;8.25;;;;;;;;;;5060903;28;20428;-68
2023/06/09 06:14:53;;;;;;;8.80;8.20;;;;;;;;;;5064282;28;20419;-68
2023/06/09 06:17:20;;;;;;;8.40;7.80;;;;;;;;;;5062393;28;20423;-66
2023/06/09 06:19:49;;;;;;;8.68;7.97;;;;;;;;;;5060208;28;20435;-67
2023/06/09 06:22:16;;;;;;;7.80;7.30;;;;;;;;;;5060926;28;20527;-67
2023/06/09 06:24:43;;;;;;;8.07;7.32;;;;;;;;;;5061926;28;20434;-66
2023/06/09 06:27:11;;;;;;;8.07;7.47;;;;;;;;;;5060538;28;21485;-66
2023/06/09 06:29:38;;;;;;;7.50;7.00;;;;;;;;;;5066656;28;20433;-66
2023/06/09 06:32:06;;;;;;;7.73;7.13;;;;;;;;;;5058988;28;20632;-66
2023/06/09 06:34:33;;;;;;;8.00;7.40;;;;;;;;;;5068809;28;20438;-67
2023/06/09 06:37:01;;;;;;;7.90;7.30;;;;;;;;;;5063270;28;20435;-67
2023/06/09 06:39:28;;;;;;;7.72;7.15;;;;;;;;;;5066892;28;20806;-67
2023/06/09 06:41:56;;;;;;;7.65;6.95;;;;;;;;;;5069924;28;20446;-66
2023/06/09 06:44:23;;;;;;;7.50;6.90;;;;;;;;;;5068851;28;20435;-65
2023/06/09 06:46:50;;;;;;;7.63;6.95;;;;;;;;;;5056759;28;20911;-66
2023/06/09 06:49:17;;;;;;;6.97;6.47;;;;;;;;;;5065458;28;20531;-67
2023/06/09 06:51:44;;;;;;;8.18;7.57;;;;;;;;;;5057296;28;20432;-67
2023/06/09 06:54:12;;;;;;;8.02;7.32;;;;;;;;;;5059646;28;20432;-67
2023/06/09 06:56:40;;;;;;;7.88;7.28;;;;;;;;;;5067813;28;20439;-66
2023/06/09 06:59:07;;;;;;;7.90;7.30;;;;;;;;;;5068608;28;20434;-68
2023/06/09 07:01:37;;;;;;;7.57;7.07;;;;;;;;;;5066715;28;20438;-67
2023/06/09 07:04:04;;;;;;;8.18;7.68;;;;;;;;;;5062475;28;20493;-68
2023/06/09 07:06:32;;;;;;;8.10;7.50;;;;;;;;;;5061699;28;20908;-67
2023/06/09 07:08:59;;;;;;;7.82;7.32;;;;;;;;;;5058998;28;20440;-67
2023/06/09 07:11:28;;;;;;;7.50;7.00;;;;;;;;;;5060736;28;20427;-68
2023/06/09 07:13:55;;;;;;;7.40;6.70;;;;;;;;;;5069853;28;20445;-68
2023/06/09 07:16:22;;;;;;;7.70;7.20;;;;;;;;;;5088303;28;20506;-66
2023/06/09 07:18:49;;;;;;;8.10;7.50;;;;;;;;;;5084173;28;20419;-66
2023/06/09 07:21:16;;;;;;;7.70;7.20;;;;;;;;;;5084037;28;20441;-68
2023/06/09 07:23:44;;;;;;;7.68;7.07;;;;;;;;;;5065929;28;20847;-68
2023/06/09 07:26:11;;;;;;;7.90;7.30;;;;;;;;;;5065088;28;20926;-67
2023/06/09 07:28:39;;;;;;;7.60;7.10;;;;;;;;;;5071144;28;20849;-67
2023/06/09 07:31:06;;;;;;;7.20;6.70;;;;;;;;;;5067402;28;20428;-68
2023/06/09 07:33:34;;;;;;;7.47;6.78;;;;;;;;;;5057267;28;20423;-67
2023/06/09 07:36:02;;;;;;;7.32;6.82;;;;;;;;;;5059968;28;20488;-69
2023/06/09 07:38:29;;;;;;;7.13;6.63;;;;;;;;;;5065141;28;20986;-66
2023/06/09 07:40:56;;;;;;;7.13;6.60;;;;;;;;;;5064889;28;20419;-69
2023/06/09 07:43:23;;;;;;;6.87;6.27;;;;;;;;;;5067496;28;20438;-67
2023/06/09 07:45:52;;;;;;;7.57;6.90;;;;;;;;;;5062846;28;20459;-70
2023/06/09 07:48:19;;;;;;;6.83;6.20;;;;;;;;;;5059859;28;20514;-67
2023/06/09 07:50:46;;;;;;;7.13;6.63;;;;;;;;;;5058044;28;20441;-67
2023/06/09 07:53:13;;;;;;;6.85;6.35;;;;;;;;;;5063897;28;20450;-70
2023/06/09 07:55:40;;;;;;;6.47;6.07;;;;;;;;;;5066481;28;20432;-68
2023/06/09 07:58:07;;;;;;;7.20;6.60;;;;;;;;;;5056971;28;20444;-71
2023/06/09 08:00:35;;;;;;;6.85;6.25;;;;;;;;;;5058159;28;20434;-69
2023/06/09 08:03:03;;;;;;;6.97;6.45;;;;;;;;;;5060324;28;20846;-70
2023/06/09 08:05:31;;;;;;;6.80;6.20;;;;;;;;;;5061937;28;20433;-75
2023/06/09 08:07:58;;;;;;;7.07;6.37;;;;;;;;;;5061052;28;20429;-71
2023/06/09 08:10:25;;;;;;;6.53;6.03;;;;;;;;;;5059757;28;20473;-72
2023/06/09 08:12:52;;;;;;;7.28;6.68;;;;;;;;;;5059680;28;20435;-72
2023/06/09 08:15:20;;;;;;;6.70;6.20;;;;;;;;;;5056096;28;20446;-71
2023/06/09 08:17:47;;;;;;;6.25;5.75;;;;;;;;;;5060364;28;20424;-74
2023/06/09 08:20:16;;;;;;;6.50;6.00;;;;;;;;;;5061523;28;20735;-75
2023/06/09 08:22:43;;;;;;;6.32;5.93;;;;;;;;;;5062542;28;20471;-77
2023/06/09 08:25:11;;;;;;;6.70;6.20;;;;;;;;;;5057220;28;22389;-76
2023/06/09 08:27:38;;;;;;;6.30;5.80;;;;;;;;;;5055628;28;20496;-75
2023/06/09 08:30:06;;;;;;;6.70;6.20;;;;;;;;;;5059941;28;20562;-74
2023/06/09 08:32:34;;;;;;;6.10;5.70;;;;;;;;;;5065645;28;20427;-74
2023/06/09 08:35:03;;;;;;;5.60;5.20;;;;;;;;;;5063064;28;20467;-73
2023/06/09 08:37:47;;;;;;;6.20;5.70;;;;;;;;;;5082722;27;20392;-74
2023/06/09 08:40:14;;;;;;;6.18;5.68;;;;;;;;;;5082363;27;20431;-75
2023/06/09 08:42:41;;;;;;;6.20;5.70;;;;;;;;;;5075690;27;20417;-75
2023/06/09 08:45:09;;;;;;;5.72;5.40;;;;;;;;;;5080320;27;20786;-76
2023/06/09 08:47:37;;;;;;;6.15;5.75;;;;;;;;;;5079537;28;20510;-73
2023/06/09 08:50:05;;;;;;;5.60;5.20;;;;;;;;;;5073110;27;20629;-72
2023/06/09 08:52:32;;;;;;;5.65;5.15;;;;;;;;;;5074330;27;20449;-72
2023/06/09 08:55:01;;;;;;;6.00;5.60;;;;;;;;;;5064658;27;20435;-72
2023/06/09 08:57:28;;;;;;;5.80;5.40;;;;;;;;;;5071897;28;20491;-72
2023/06/09 08:59:55;;;;;;;5.57;5.17;;;;;;;;;;5076266;28;20415;-71
2023/06/09 09:02:22;;;;;;;5.72;5.40;;;;;;;;;;5080447;28;20427;-72
2023/06/09 09:04:50;;;;;;;5.20;4.70;;;;;;;;;;5127579;27;20488;-71
2023/06/09 09:07:17;;;;;;;5.20;4.85;;;;;;;;;;5077531;28;20917;-70
2023/06/09 09:09:44;;;;;;;4.70;4.40;;;;;;;;;;5074485;28;20419;-72
2023/06/09 09:12:13;;;;;;;5.40;4.90;;;;;;;;;;5084558;28;20414;-72
2023/06/09 09:14:41;;;;;;;4.82;4.43;;;;;;;;;;5071898;28;20406;-72
2023/06/09 09:17:09;;;;;;;4.80;4.40;;;;;;;;;;5083310;28;20549;-70
2023/06/09 09:19:37;;;;;;;4.60;4.30;;;;;;;;;;5082663;28;20433;-71
2023/06/09 09:22:07;;;;;;;4.63;4.30;;;;;;;;;;5076906;28;20416;-73
2023/06/09 09:24:35;;;;;;;4.38;4.07;;;;;;;;;;5070229;27;20427;-72
2023/06/09 09:27:04;;;;;;;4.70;4.40;;;;;;;;;;5071366;28;20777;-71
2023/06/09 09:29:40;;;;;;;4.63;4.32;;;;;;;;;;5077398;27;20438;-71
2023/06/09 09:32:08;;;;;;;4.38;4.07;;;;;;;;;;5079439;28;20518;-73
2023/06/09 09:34:35;;;;;;;4.30;4.00;;;;;;;;;;5082164;28;20419;-72
2023/06/09 09:37:03;;;;;;;4.50;4.10;;;;;;;;;;5078940;27;20427;-72
2023/06/09 09:39:31;;;;;;;4.73;4.43;;;;;;;;;;5082096;28;20448;-70
2023/06/09 09:42:06;;;;;;;4.20;3.90;;;;;;;;;;5094376;27;20425;-71
2023/06/09 09:44:39;;;;;;;4.40;4.00;;;;;;;;;;5109592;27;20403;-71
2023/06/09 09:47:06;;;;;;;4.13;3.83;;;;;;;;;;5098465;27;20413;-70
2023/06/09 09:49:33;;;;;;;3.90;3.70;;;;;;;;;;5087859;28;20404;-72
2023/06/09 09:52:00;;;;;;;3.67;3.37;;;;;;;;;;5075945;27;20519;-72
2023/06/09 09:54:28;;;;;;;3.80;3.50;;;;;;;;;;5063608;28;20473;-72
2023/06/09 09:56:56;;;;;;;3.70;3.40;;;;;;;;;;5068055;28;20427;-70
2023/06/09 09:59:23;;;;;;;3.80;3.50;;;;;;;;;;5061681;28;20447;-70
2023/06/09 10:01:52;;;;;;;3.25;3.05;;;;;;;;;;5072239;28;20426;-69
2023/06/09 10:04:21;;;;;;;3.30;3.10;;;;;;;;;;5073363;27;20429;-69
2023/06/09 10:06:50;;;;;;;3.33;3.10;;;;;;;;;;5061445;28;20428;-67
2023/06/09 10:09:17;;;;;;;3.80;3.50;;;;;;;;;;5066044;28;20905;-67
2023/06/09 10:11:44;;;;;;;3.60;3.30;;;;;;;;;;5061714;28;20438;-69
2023/06/09 10:14:11;;;;;;;3.40;3.10;;;;;;;;;;5054273;28;20424;-69
2023/06/09 10:16:39;;;;;;;3.40;3.10;;;;;;;;;;5052836;27;20432;-69
2023/06/09 10:19:07;;;;;;;3.65;3.35;;;;;;;;;;5060615;28;20418;-76
2023/06/09 10:21:35;;;;;;;3.45;3.25;;;;;;;;;;5049157;28;20413;-70
2023/06/09 10:24:03;;;;;;;3.30;3.10;;;;;;;;;;5051700;28;20707;-70
2023/06/09 10:26:30;;;;;;;3.40;3.20;;;;;;;;;;5066030;27;20436;-70
2023/06/09 10:28:57;;;;;;;3.70;3.20;;;;;;;;;;5050951;28;20599;-71
2023/06/09 10:31:25;;;;;;;3.60;3.30;;;;;;;;;;5048446;28;21100;-71
2023/06/09 10:33:54;;;;;;;3.20;3.00;;;;;;;;;;5063488;27;20435;-70
2023/06/09 10:36:22;;;;;;;3.13;2.92;;;;;;;;;;5057972;28;20433;-70
2023/06/09 10:38:53;;;;;;;3.30;3.00;;;;;;;;;;5048844;28;20791;-70
2023/06/09 10:41:23;;;;;;;3.17;2.97;;;;;;;;;;5060874;28;20455;-72
2023/06/09 10:44:04;;;;;;;3.30;3.10;;;;;;;;;;5049977;28;20538;-72
2023/06/09 10:46:42;;;;;;;3.40;3.10;;;;;;;;;;5049931;28;20904;-72
2023/06/09 10:49:09;;;;;;;3.40;3.20;;;;;;;;;;5064030;27;20453;-73
2023/06/09 10:51:41;;;;;;;3.85;3.15;;;;;;;;;;5054968;28;20428;-72
2023/06/09 10:54:24;;;;;;;3.20;3.00;;;;;;;;;;5047958;28;20495;-72
2023/06/09 10:56:55;;;;;;;2.97;2.77;;;;;;;;;;5047978;28;20474;-72
2023/06/09 10:59:41;;;;;;;3.25;2.95;;;;;;;;;;5046406;28;20425;-72
2023/06/09 11:02:23;;;;;;;2.90;2.70;;;;;;;;;;5058566;28;20423;-71
2023/06/09 11:04:52;;;;;;;3.30;3.10;;;;;;;;;;5114495;27;20551;-71
2023/06/09 11:07:21;;;;;;;2.90;2.70;;;;;;;;;;5062688;27;20440;-73
2023/06/09 11:10:07;;;;;;;3.00;2.70;;;;;;;;;;5047990;28;20914;-71
2023/06/09 11:12:44;;;;;;;3.10;2.90;;;;;;;;;;5054767;28;20425;-71
2023/06/09 11:15:12;;;;;;;3.23;2.90;;;;;;;;;;5048754;28;20424;-73
2023/06/09 11:17:40;;;;;;;3.00;2.80;;;;;;;;;;5051522;28;20437;-71
2023/06/09 11:20:15;;;;;;;2.90;2.70;;;;;;;;;;5062650;28;20417;-72
2023/06/09 11:23:00;;;;;;;2.80;2.60;;;;;;;;;;5053350;28;20472;-71
2023/06/09 11:25:37;;;;;;;2.90;2.70;;;;;;;;;;5064822;27;20427;-72
2023/06/09 11:28:23;;;;;;;3.00;2.80;;;;;;;;;;5048620;28;20452;-73
2023/06/09 11:31:03;;;;;;;3.30;2.70;;;;;;;;;;5047398;28;20891;-72
2023/06/09 11:33:40;;;;;;;2.90;2.53;;;;;;;;;;5060625;28;20426;-71
2023/06/09 11:36:07;;;;;;;2.80;2.60;;;;;;;;;;5070535;28;20417;-71
2023/06/09 11:38:36;;;;;;;2.60;2.40;;;;;;;;;;5067183;28;20410;-70
2023/06/09 11:41:04;;;;;;;3.72;2.88;;;;;;;;;;5049940;28;20418;-71
2023/06/09 11:43:31;;;;;;;2.90;2.70;;;;;;;;;;5049476;28;20439;-73
2023/06/09 11:46:01;;;;;;;3.00;2.70;;;;;;;;;;5048381;28;20428;-72
2023/06/09 11:48:28;;;;;;;2.60;2.50;;;;;;;;;;5048115;28;20417;-73
2023/06/09 11:50:55;;;;;;;3.17;2.40;;;;;;;;;;5047401;27;20938;-72
2023/06/09 11:53:24;;;;;;;3.00;2.70;;;;;;;;;;5048503;28;20413;-74
2023/06/09 11:55:59;;;;;;;2.90;2.70;;;;;;;;;;5048084;28;20417;-71
2023/06/09 11:58:26;;;;;;;2.60;2.40;;;;;;;;;;5047129;28;20776;-72
2023/06/09 12:00:56;;;;;;;2.60;2.40;;;;;;;;;;5047695;28;20420;-71
2023/06/09 12:03:23;;;;;;;2.50;2.30;;;;;;;;;;5075086;27;20420;-71
2023/06/09 12:05:50;;;;;;;2.55;2.35;;;;;;;;;;5088881;27;20509;-72
2023/06/09 12:08:18;;;;;;;2.60;2.40;;;;;;;;;;5059906;28;20413;-73
2023/06/09 12:10:45;;;;;;;3.10;2.80;;;;;;;;;;5046763;28;20907;-72
2023/06/09 12:13:14;;;;;;;2.72;2.40;;;;;;;;;;5067531;27;20930;-73
2023/06/09 12:15:45;;;;;;;2.80;2.60;;;;;;;;;;5052874;28;20410;-72
2023/06/09 12:18:12;;;;;;;2.60;2.40;;;;;;;;;;5055095;28;20711;-72
2023/06/09 12:20:41;;;;;;;3.75;2.35;;;;;;;;;;5058879;28;20478;-71
2023/06/09 12:23:12;;;;;;;3.15;2.85;;;;;;;;;;5067360;28;20849;-71
2023/06/09 12:25:40;;;;;;;3.00;2.80;;;;;;;;;;5061202;28;20628;-71
2023/06/09 12:28:16;;;;;;;2.22;2.13;;;;;;;;;;5047776;27;20425;-72
2023/06/09 12:30:47;;;;;;;2.55;2.33;;;;;;;;;;5046823;28;21083;-70
2023/06/09 12:33:14;;;;;;;2.80;2.40;;;;;;;;;;5055390;27;20453;-73
2023/06/09 12:35:42;;;;;;;2.87;2.57;;;;;;;;;;5045965;27;20728;-72
2023/06/09 12:38:10;;;;;;;2.53;2.33;;;;;;;;;;5061397;28;20424;-71
2023/06/09 12:40:43;;;;;;;2.90;2.70;;;;;;;;;;5053652;27;20427;-70
2023/06/09 12:43:11;;;;;;;2.58;2.38;;;;;;;;;;5066892;28;20421;-75
2023/06/09 12:45:41;;;;;;;2.53;2.33;;;;;;;;;;5060323;27;20782;-74
2023/06/09 12:48:08;;;;;;;2.50;2.30;;;;;;;;;;5046190;28;20413;-72
2023/06/09 12:50:36;;;;;;;2.58;2.38;;;;;;;;;;5047636;27;20440;-74
2023/06/09 12:53:03;;;;;;;2.50;2.10;;;;;;;;;;5050934;27;20925;-72
2023/06/09 12:55:30;;;;;;;2.75;2.40;;;;;;;;;;5056676;27;20807;-72
2023/06/09 12:57:57;;;;;;;2.35;2.15;;;;;;;;;;5047661;27;20425;-75
2023/06/09 13:00:24;;;;;;;2.70;2.50;;;;;;;;;;5059040;27;20437;-74
2023/06/09 13:02:53;;;;;;;2.40;2.30;;;;;;;;;;5045700;27;20421;-73
2023/06/09 13:05:20;;;;;;;2.67;2.47;;;;;;;;;;5080779;27;20433;-73
2023/06/09 13:07:47;;;;;;;2.60;2.40;;;;;;;;;;5045411;27;20904;-73
2023/06/09 13:10:14;;;;;;;2.50;2.30;;;;;;;;;;5043903;27;20436;-74
2023/06/09 13:12:41;;;;;;;2.50;2.30;;;;;;;;;;5046021;27;20441;-73
2023/06/09 13:15:09;;;;;;;2.30;2.20;;;;;;;;;;5064430;27;20432;-72
2023/06/09 13:17:37;;;;;;;2.40;2.20;;;;;;;;;;5053153;27;20427;-72
2023/06/09 13:20:06;;;;;;;2.88;2.30;;;;;;;;;;5056046;28;20418;-72
2023/06/09 13:22:33;;;;;;;2.47;2.37;;;;;;;;;;5045824;27;20490;-72
2023/06/09 13:25:00;;;;;;;2.80;2.60;;;;;;;;;;5055596;27;20433;-72
2023/06/09 13:27:27;;;;;;;2.47;2.28;;;;;;;;;;5058141;27;20424;-73
2023/06/09 13:29:54;;;;;;;2.80;2.60;;;;;;;;;;5059692;27;20435;-75
2023/06/09 13:32:21;;;;;;;2.55;2.20;;;;;;;;;;5068666;28;20557;-74
2023/06/09 13:34:48;;;;;;;2.50;2.30;;;;;;;;;;5061405;27;20435;-71
2023/06/09 13:37:17;;;;;;;3.40;2.90;;;;;;;;;;5065937;28;20440;-72
2023/06/09 13:39:44;;;;;;;2.92;2.63;;;;;;;;;;5060182;28;20423;-71
2023/06/09 13:42:11;;;;;;;2.67;2.47;;;;;;;;;;5053189;28;20425;-71
2023/06/09 13:44:38;;;;;;;2.92;2.50;;;;;;;;;;5051831;28;20710;-72
2023/06/09 13:47:06;;;;;;;3.03;2.72;;;;;;;;;;5059631;28;20418;-71
2023/06/09 13:49:33;;;;;;;2.97;2.72;;;;;;;;;;5049019;28;20426;-71
2023/06/09 13:52:00;;;;;;;2.80;2.60;;;;;;;;;;5052662;27;20433;-71
2023/06/09 13:54:28;;;;;;;3.10;2.80;;;;;;;;;;5051866;28;20660;-72
2023/06/09 13:56:55;;;;;;;2.90;2.70;;;;;;;;;;5050047;27;20817;-71
2023/06/09 13:59:22;;;;;;;2.50;2.30;;;;;;;;;;5052658;28;20783;-72
2023/06/09 14:01:49;;;;;;;2.90;2.60;;;;;;;;;;5056096;28;20497;-70
2023/06/09 14:04:17;;;;;;;2.80;2.60;;;;;;;;;;5117761;27;20508;-72
2023/06/09 14:06:44;;;;;;;2.70;2.50;;;;;;;;;;5057562;27;20412;-72
2023/06/09 14:09:12;;;;;;;2.47;2.28;;;;;;;;;;5054898;27;20437;-71
2023/06/09 14:11:41;;;;;;;2.50;2.40;;;;;;;;;;5048268;28;20429;-70
2023/06/09 14:14:08;;;;;;;2.60;2.40;;;;;;;;;;5062896;27;20420;-71
2023/06/09 14:16:35;;;;;;;3.00;2.40;;;;;;;;;;5048880;28;20428;-71
2023/06/09 14:19:03;;;;;;;2.45;2.35;;;;;;;;;;5060944;28;20793;-71
2023/06/09 14:21:30;;;;;;;2.08;1.98;;;;;;;;;;5048032;27;20445;-72
2023/06/09 14:23:57;;;;;;;2.40;2.20;;;;;;;;;;5064141;28;20427;-73
2023/06/09 14:26:24;;;;;;;2.38;2.15;;;;;;;;;;5072629;28;20412;-70
2023/06/09 14:28:52;;;;;;;2.50;2.30;;;;;;;;;;5063737;27;20624;-73
2023/06/09 14:31:19;;;;;;;2.28;2.08;;;;;;;;;;5050114;28;20418;-71
2023/06/09 14:33:46;;;;;;;2.42;2.25;;;;;;;;;;5067202;28;20420;-71
2023/06/09 14:36:13;;;;;;;2.67;2.47;;;;;;;;;;5058678;27;20432;-71
2023/06/09 14:38:41;;;;;;;2.33;2.22;;;;;;;;;;5052338;28;20448;-71
2023/06/09 14:41:08;;;;;;;2.60;2.40;;;;;;;;;;5048425;28;20417;-71